sensor_id;sensor_type;location;lat;lon;timestamp;P1;durP1;ratioP1;P2;durP2;ratioP2
26375;SDS011;30544;42.196;24.336;2022-12-07T00:02:26;103.45;;;51.92;;
26375;SDS011;30544;42.196;24.336;2022-12-07T00:04:53;113.50;;;54.42;;
26375;SDS011;30544;42.196;24.336;2022-12-07T00:07:20;106.85;;;53.15;;
26375;SDS011;30544;42.196;24.336;2022-12-07T00:09:48;115.63;;;53.13;;
26375;SDS011;30544;42.196;24.336;2022-12-07T00:12:14;102.20;;;47.28;;
26375;SDS011;30544;42.196;24.336;2022-12-07T00:14:41;99.05;;;47.08;;
26375;SDS011;30544;42.196;24.336;2022-12-07T00:17:08;92.82;;;46.70;;
26375;SDS011;30544;42.196;24.336;2022-12-07T00:19:34;89.15;;;45.17;;
26375;SDS011;30544;42.196;24.336;2022-12-07T00:22:01;87.85;;;43.67;;
26375;SDS011;30544;42.196;24.336;2022-12-07T00:24:28;87.85;;;43.80;;
26375;SDS011;30544;42.196;24.336;2022-12-07T00:26:56;84.57;;;40.55;;
26375;SDS011;30544;42.196;24.336;2022-12-07T00:29:23;84.20;;;38.97;;
26375;SDS011;30544;42.196;24.336;2022-12-07T00:31:50;87.47;;;41.55;;
26375;SDS011;30544;42.196;24.336;2022-12-07T00:34:17;85.45;;;44.25;;
26375;SDS011;30544;42.196;24.336;2022-12-07T00:36:45;90.80;;;43.55;;
26375;SDS011;30544;42.196;24.336;2022-12-07T00:39:13;82.18;;;39.67;;
26375;SDS011;30544;42.196;24.336;2022-12-07T00:41:40;82.10;;;38.03;;
26375;SDS011;30544;42.196;24.336;2022-12-07T00:44:08;81.13;;;39.42;;
26375;SDS011;30544;42.196;24.336;2022-12-07T00:46:34;79.78;;;40.63;;
26375;SDS011;30544;42.196;24.336;2022-12-07T00:49:01;77.78;;;38.60;;
26375;SDS011;30544;42.196;24.336;2022-12-07T00:51:28;82.25;;;41.10;;
26375;SDS011;30544;42.196;24.336;2022-12-07T00:53:55;80.95;;;38.38;;
26375;SDS011;30544;42.196;24.336;2022-12-07T00:56:22;78.65;;;38.58;;
26375;SDS011;30544;42.196;24.336;2022-12-07T00:58:51;83.97;;;40.50;;
26375;SDS011;30544;42.196;24.336;2022-12-07T01:01:20;89.20;;;40.80;;
26375;SDS011;30544;42.196;24.336;2022-12-07T01:03:48;89.25;;;43.30;;
26375;SDS011;30544;42.196;24.336;2022-12-07T01:06:15;80.68;;;40.60;;
26375;SDS011;30544;42.196;24.336;2022-12-07T01:08:42;87.82;;;42.35;;
26375;SDS011;30544;42.196;24.336;2022-12-07T01:11:12;89.55;;;41.05;;
26375;SDS011;30544;42.196;24.336;2022-12-07T01:13:41;86.60;;;42.60;;
26375;SDS011;30544;42.196;24.336;2022-12-07T01:16:09;92.03;;;45.45;;
26375;SDS011;30544;42.196;24.336;2022-12-07T01:18:38;90.32;;;44.80;;
26375;SDS011;30544;42.196;24.336;2022-12-07T01:21:06;81.35;;;39.50;;
26375;SDS011;30544;42.196;24.336;2022-12-07T01:23:35;83.45;;;42.55;;
26375;SDS011;30544;42.196;24.336;2022-12-07T01:26:04;100.78;;;45.78;;
26375;SDS011;30544;42.196;24.336;2022-12-07T01:28:32;90.75;;;45.15;;
26375;SDS011;30544;42.196;24.336;2022-12-07T01:30:59;90.97;;;42.35;;
26375;SDS011;30544;42.196;24.336;2022-12-07T01:33:29;87.55;;;41.72;;
26375;SDS011;30544;42.196;24.336;2022-12-07T01:36:02;93.72;;;42.78;;
26375;SDS011;30544;42.196;24.336;2022-12-07T01:38:30;88.72;;;43.30;;
26375;SDS011;30544;42.196;24.336;2022-12-07T01:40:57;86.38;;;42.10;;
26375;SDS011;30544;42.196;24.336;2022-12-07T01:43:25;86.82;;;41.30;;
26375;SDS011;30544;42.196;24.336;2022-12-07T01:45:54;95.90;;;44.13;;
26375;SDS011;30544;42.196;24.336;2022-12-07T01:48:22;84.10;;;42.63;;
26375;SDS011;30544;42.196;24.336;2022-12-07T01:50:55;81.45;;;39.90;;
26375;SDS011;30544;42.196;24.336;2022-12-07T01:53:27;101.88;;;45.00;;
26375;SDS011;30544;42.196;24.336;2022-12-07T01:55:56;90.53;;;42.00;;
26375;SDS011;30544;42.196;24.336;2022-12-07T01:58:25;98.88;;;47.20;;
26375;SDS011;30544;42.196;24.336;2022-12-07T02:00:52;101.18;;;45.20;;
26375;SDS011;30544;42.196;24.336;2022-12-07T02:03:20;112.03;;;47.90;;
26375;SDS011;30544;42.196;24.336;2022-12-07T02:05:50;103.25;;;47.15;;
26375;SDS011;30544;42.196;24.336;2022-12-07T02:08:19;96.97;;;45.35;;
26375;SDS011;30544;42.196;24.336;2022-12-07T02:10:48;108.43;;;49.00;;
26375;SDS011;30544;42.196;24.336;2022-12-07T02:13:15;114.80;;;47.58;;
26375;SDS011;30544;42.196;24.336;2022-12-07T02:15:49;103.00;;;48.72;;
26375;SDS011;30544;42.196;24.336;2022-12-07T02:18:31;137.05;;;56.50;;
26375;SDS011;30544;42.196;24.336;2022-12-07T02:21:10;117.22;;;52.05;;
26375;SDS011;30544;42.196;24.336;2022-12-07T02:30:00;102.80;;;47.47;;
26375;SDS011;30544;42.196;24.336;2022-12-07T02:32:30;102.15;;;42.97;;
26375;SDS011;30544;42.196;24.336;2022-12-07T02:35:09;103.55;;;45.15;;
26375;SDS011;30544;42.196;24.336;2022-12-07T02:37:39;89.25;;;43.20;;
26375;SDS011;30544;42.196;24.336;2022-12-07T02:40:14;104.68;;;45.85;;
26375;SDS011;30544;42.196;24.336;2022-12-07T02:45:17;92.05;;;42.10;;
26375;SDS011;30544;42.196;24.336;2022-12-07T02:47:47;90.05;;;41.75;;
26375;SDS011;30544;42.196;24.336;2022-12-07T02:50:17;93.55;;;45.20;;
26375;SDS011;30544;42.196;24.336;2022-12-07T02:52:45;105.18;;;45.00;;
26375;SDS011;30544;42.196;24.336;2022-12-07T02:55:12;102.50;;;46.15;;
26375;SDS011;30544;42.196;24.336;2022-12-07T02:57:47;120.90;;;48.58;;
26375;SDS011;30544;42.196;24.336;2022-12-07T03:00:23;106.47;;;45.30;;
26375;SDS011;30544;42.196;24.336;2022-12-07T03:02:51;88.50;;;40.28;;
26375;SDS011;30544;42.196;24.336;2022-12-07T03:05:45;94.82;;;40.55;;
26375;SDS011;30544;42.196;24.336;2022-12-07T03:08:30;98.68;;;41.80;;
26375;SDS011;30544;42.196;24.336;2022-12-07T03:11:05;92.10;;;41.42;;
26375;SDS011;30544;42.196;24.336;2022-12-07T03:13:36;103.88;;;42.42;;
26375;SDS011;30544;42.196;24.336;2022-12-07T03:16:10;88.97;;;39.47;;
26375;SDS011;30544;42.196;24.336;2022-12-07T03:18:42;103.45;;;46.15;;
26375;SDS011;30544;42.196;24.336;2022-12-07T03:21:13;98.10;;;42.70;;
26375;SDS011;30544;42.196;24.336;2022-12-07T03:23:46;91.00;;;41.38;;
26375;SDS011;30544;42.196;24.336;2022-12-07T03:26:17;99.60;;;44.90;;
26375;SDS011;30544;42.196;24.336;2022-12-07T03:28:49;83.07;;;39.60;;
26375;SDS011;30544;42.196;24.336;2022-12-07T03:31:21;102.82;;;45.03;;
26375;SDS011;30544;42.196;24.336;2022-12-07T03:33:52;98.90;;;44.03;;
26375;SDS011;30544;42.196;24.336;2022-12-07T03:36:24;101.47;;;43.08;;
26375;SDS011;30544;42.196;24.336;2022-12-07T03:38:57;93.03;;;40.15;;
26375;SDS011;30544;42.196;24.336;2022-12-07T03:41:29;95.65;;;42.30;;
26375;SDS011;30544;42.196;24.336;2022-12-07T03:44:00;93.60;;;42.67;;
26375;SDS011;30544;42.196;24.336;2022-12-07T03:46:30;93.55;;;42.47;;
26375;SDS011;30544;42.196;24.336;2022-12-07T03:49:06;110.78;;;45.97;;
26375;SDS011;30544;42.196;24.336;2022-12-07T03:51:39;97.30;;;41.00;;
26375;SDS011;30544;42.196;24.336;2022-12-07T03:54:10;94.88;;;40.45;;
26375;SDS011;30544;42.196;24.336;2022-12-07T03:56:42;104.78;;;44.03;;
26375;SDS011;30544;42.196;24.336;2022-12-07T03:59:10;96.90;;;40.83;;
26375;SDS011;30544;42.196;24.336;2022-12-07T04:01:42;107.80;;;46.15;;
26375;SDS011;30544;42.196;24.336;2022-12-07T04:04:09;97.90;;;41.20;;
26375;SDS011;30544;42.196;24.336;2022-12-07T04:06:36;98.40;;;45.97;;
26375;SDS011;30544;42.196;24.336;2022-12-07T04:09:03;107.95;;;48.17;;
26375;SDS011;30544;42.196;24.336;2022-12-07T04:11:30;98.40;;;42.97;;
26375;SDS011;30544;42.196;24.336;2022-12-07T04:13:57;100.53;;;42.47;;
26375;SDS011;30544;42.196;24.336;2022-12-07T04:16:42;92.25;;;39.58;;
26375;SDS011;30544;42.196;24.336;2022-12-07T04:19:09;84.28;;;38.08;;
26375;SDS011;30544;42.196;24.336;2022-12-07T04:21:36;75.88;;;36.92;;
26375;SDS011;30544;42.196;24.336;2022-12-07T04:24:03;95.07;;;40.30;;
26375;SDS011;30544;42.196;24.336;2022-12-07T04:26:30;93.50;;;42.17;;
26375;SDS011;30544;42.196;24.336;2022-12-07T04:28:57;92.68;;;41.65;;
26375;SDS011;30544;42.196;24.336;2022-12-07T04:31:24;91.20;;;39.90;;
26375;SDS011;30544;42.196;24.336;2022-12-07T04:33:52;94.53;;;39.25;;
26375;SDS011;30544;42.196;24.336;2022-12-07T04:36:19;92.18;;;40.88;;
26375;SDS011;30544;42.196;24.336;2022-12-07T04:38:46;92.55;;;45.00;;
26375;SDS011;30544;42.196;24.336;2022-12-07T04:41:13;120.13;;;59.22;;
26375;SDS011;30544;42.196;24.336;2022-12-07T04:43:39;120.03;;;61.05;;
26375;SDS011;30544;42.196;24.336;2022-12-07T04:46:06;118.20;;;60.95;;
26375;SDS011;30544;42.196;24.336;2022-12-07T04:48:33;101.03;;;47.05;;
26375;SDS011;30544;42.196;24.336;2022-12-07T04:51:01;117.53;;;52.95;;
26375;SDS011;30544;42.196;24.336;2022-12-07T04:53:28;114.53;;;49.67;;
26375;SDS011;30544;42.196;24.336;2022-12-07T04:55:55;99.05;;;45.08;;
26375;SDS011;30544;42.196;24.336;2022-12-07T04:58:22;112.60;;;47.88;;
26375;SDS011;30544;42.196;24.336;2022-12-07T05:00:48;117.93;;;50.83;;
26375;SDS011;30544;42.196;24.336;2022-12-07T05:03:15;101.72;;;46.60;;
26375;SDS011;30544;42.196;24.336;2022-12-07T05:05:42;98.15;;;43.80;;
26375;SDS011;30544;42.196;24.336;2022-12-07T05:08:10;110.18;;;47.95;;
26375;SDS011;30544;42.196;24.336;2022-12-07T05:10:37;109.20;;;47.20;;
26375;SDS011;30544;42.196;24.336;2022-12-07T05:13:03;89.85;;;41.17;;
26375;SDS011;30544;42.196;24.336;2022-12-07T05:15:30;87.57;;;42.17;;
26375;SDS011;30544;42.196;24.336;2022-12-07T05:17:57;95.40;;;43.45;;
26375;SDS011;30544;42.196;24.336;2022-12-07T05:20:24;83.28;;;41.60;;
26375;SDS011;30544;42.196;24.336;2022-12-07T05:22:50;80.82;;;41.55;;
26375;SDS011;30544;42.196;24.336;2022-12-07T05:25:18;91.03;;;46.35;;
26375;SDS011;30544;42.196;24.336;2022-12-07T05:27:45;84.30;;;43.60;;
26375;SDS011;30544;42.196;24.336;2022-12-07T05:30:12;113.20;;;46.38;;
26375;SDS011;30544;42.196;24.336;2022-12-07T05:32:39;135.77;;;60.78;;
26375;SDS011;30544;42.196;24.336;2022-12-07T05:35:06;203.95;;;94.63;;
26375;SDS011;30544;42.196;24.336;2022-12-07T05:37:33;201.40;;;97.70;;
26375;SDS011;30544;42.196;24.336;2022-12-07T05:40:00;222.75;;;105.70;;
26375;SDS011;30544;42.196;24.336;2022-12-07T05:42:31;312.38;;;159.02;;
26375;SDS011;30544;42.196;24.336;2022-12-07T05:44:58;279.75;;;138.07;;
26375;SDS011;30544;42.196;24.336;2022-12-07T05:47:24;253.73;;;135.35;;
26375;SDS011;30544;42.196;24.336;2022-12-07T05:49:51;307.48;;;171.52;;
26375;SDS011;30544;42.196;24.336;2022-12-07T05:52:18;227.02;;;129.85;;
26375;SDS011;30544;42.196;24.336;2022-12-07T05:54:45;253.07;;;137.75;;
26375;SDS011;30544;42.196;24.336;2022-12-07T05:57:11;201.25;;;113.38;;
26375;SDS011;30544;42.196;24.336;2022-12-07T05:59:39;195.65;;;100.30;;
26375;SDS011;30544;42.196;24.336;2022-12-07T06:02:06;181.98;;;94.82;;
26375;SDS011;30544;42.196;24.336;2022-12-07T06:04:34;153.63;;;87.32;;
26375;SDS011;30544;42.196;24.336;2022-12-07T06:07:04;171.57;;;91.53;;
26375;SDS011;30544;42.196;24.336;2022-12-07T06:09:31;177.48;;;89.03;;
26375;SDS011;30544;42.196;24.336;2022-12-07T06:11:59;159.52;;;82.88;;
26375;SDS011;30544;42.196;24.336;2022-12-07T06:14:45;135.65;;;71.05;;
26375;SDS011;30544;42.196;24.336;2022-12-07T06:17:12;121.13;;;60.47;;
26375;SDS011;30544;42.196;24.336;2022-12-07T06:19:39;129.43;;;59.08;;
26375;SDS011;30544;42.196;24.336;2022-12-07T06:22:07;137.57;;;63.03;;
26375;SDS011;30544;42.196;24.336;2022-12-07T06:24:34;126.03;;;57.72;;
26375;SDS011;30544;42.196;24.336;2022-12-07T06:27:01;113.18;;;54.58;;
26375;SDS011;30544;42.196;24.336;2022-12-07T06:29:29;103.30;;;53.13;;
26375;SDS011;30544;42.196;24.336;2022-12-07T06:31:58;110.75;;;58.08;;
26375;SDS011;30544;42.196;24.336;2022-12-07T06:34:24;106.50;;;53.13;;
26375;SDS011;30544;42.196;24.336;2022-12-07T06:36:52;109.13;;;59.95;;
26375;SDS011;30544;42.196;24.336;2022-12-07T06:39:21;103.05;;;59.47;;
26375;SDS011;30544;42.196;24.336;2022-12-07T06:41:49;138.57;;;71.70;;
26375;SDS011;30544;42.196;24.336;2022-12-07T06:44:18;144.40;;;78.60;;
26375;SDS011;30544;42.196;24.336;2022-12-07T06:46:45;128.55;;;71.00;;
26375;SDS011;30544;42.196;24.336;2022-12-07T06:49:13;131.68;;;70.75;;
26375;SDS011;30544;42.196;24.336;2022-12-07T06:51:40;119.75;;;67.93;;
26375;SDS011;30544;42.196;24.336;2022-12-07T06:54:07;103.82;;;57.53;;
26375;SDS011;30544;42.196;24.336;2022-12-07T06:56:34;107.78;;;62.30;;
26375;SDS011;30544;42.196;24.336;2022-12-07T06:59:01;107.38;;;59.45;;
26375;SDS011;30544;42.196;24.336;2022-12-07T07:01:29;91.55;;;50.08;;
26375;SDS011;30544;42.196;24.336;2022-12-07T07:03:55;103.57;;;52.58;;
26375;SDS011;30544;42.196;24.336;2022-12-07T07:06:24;97.22;;;50.58;;
26375;SDS011;30544;42.196;24.336;2022-12-07T07:08:50;93.68;;;49.65;;
26375;SDS011;30544;42.196;24.336;2022-12-07T07:11:17;99.32;;;53.30;;
26375;SDS011;30544;42.196;24.336;2022-12-07T07:13:44;125.78;;;58.83;;
26375;SDS011;30544;42.196;24.336;2022-12-07T07:16:11;159.10;;;74.40;;
26375;SDS011;30544;42.196;24.336;2022-12-07T07:18:37;142.15;;;68.50;;
26375;SDS011;30544;42.196;24.336;2022-12-07T07:21:04;97.70;;;50.05;;
26375;SDS011;30544;42.196;24.336;2022-12-07T07:23:33;90.05;;;48.45;;
26375;SDS011;30544;42.196;24.336;2022-12-07T07:25:59;82.85;;;42.65;;
26375;SDS011;30544;42.196;24.336;2022-12-07T07:28:26;68.25;;;36.35;;
26375;SDS011;30544;42.196;24.336;2022-12-07T07:30:53;72.22;;;39.13;;
26375;SDS011;30544;42.196;24.336;2022-12-07T07:33:20;75.03;;;41.78;;
26375;SDS011;30544;42.196;24.336;2022-12-07T07:35:46;89.10;;;45.05;;
26375;SDS011;30544;42.196;24.336;2022-12-07T07:38:13;75.32;;;41.78;;
26375;SDS011;30544;42.196;24.336;2022-12-07T07:40:41;85.82;;;44.53;;
26375;SDS011;30544;42.196;24.336;2022-12-07T07:43:08;82.18;;;46.45;;
26375;SDS011;30544;42.196;24.336;2022-12-07T07:45:35;83.80;;;43.45;;
26375;SDS011;30544;42.196;24.336;2022-12-07T07:48:02;77.88;;;43.95;;
26375;SDS011;30544;42.196;24.336;2022-12-07T07:50:29;85.28;;;44.83;;
26375;SDS011;30544;42.196;24.336;2022-12-07T07:52:56;95.35;;;44.65;;
26375;SDS011;30544;42.196;24.336;2022-12-07T07:55:23;96.35;;;51.92;;
26375;SDS011;30544;42.196;24.336;2022-12-07T07:57:51;82.88;;;43.55;;
26375;SDS011;30544;42.196;24.336;2022-12-07T08:00:18;84.55;;;43.05;;
26375;SDS011;30544;42.196;24.336;2022-12-07T08:02:45;74.18;;;39.70;;
26375;SDS011;30544;42.196;24.336;2022-12-07T08:05:12;113.82;;;48.53;;
26375;SDS011;30544;42.196;24.336;2022-12-07T08:07:39;108.88;;;48.47;;
26375;SDS011;30544;42.196;24.336;2022-12-07T08:10:07;82.20;;;44.97;;
26375;SDS011;30544;42.196;24.336;2022-12-07T08:12:37;75.28;;;37.90;;
26375;SDS011;30544;42.196;24.336;2022-12-07T08:15:27;99.00;;;47.25;;
26375;SDS011;30544;42.196;24.336;2022-12-07T08:17:55;94.55;;;47.05;;
26375;SDS011;30544;42.196;24.336;2022-12-07T08:20:22;89.60;;;43.78;;
26375;SDS011;30544;42.196;24.336;2022-12-07T08:22:48;85.00;;;38.28;;
26375;SDS011;30544;42.196;24.336;2022-12-07T08:25:15;106.50;;;47.80;;
26375;SDS011;30544;42.196;24.336;2022-12-07T08:27:42;158.57;;;66.40;;
26375;SDS011;30544;42.196;24.336;2022-12-07T08:30:09;222.48;;;85.65;;
26375;SDS011;30544;42.196;24.336;2022-12-07T08:32:37;82.30;;;43.22;;
26375;SDS011;30544;42.196;24.336;2022-12-07T08:35:04;86.88;;;43.55;;
26375;SDS011;30544;42.196;24.336;2022-12-07T08:37:32;70.10;;;35.42;;
26375;SDS011;30544;42.196;24.336;2022-12-07T08:39:59;57.72;;;32.03;;
26375;SDS011;30544;42.196;24.336;2022-12-07T08:42:25;62.83;;;30.85;;
26375;SDS011;30544;42.196;24.336;2022-12-07T08:44:55;61.00;;;31.35;;
26375;SDS011;30544;42.196;24.336;2022-12-07T08:47:22;62.58;;;32.03;;
26375;SDS011;30544;42.196;24.336;2022-12-07T08:49:51;62.53;;;31.20;;
26375;SDS011;30544;42.196;24.336;2022-12-07T08:52:19;68.32;;;34.55;;
26375;SDS011;30544;42.196;24.336;2022-12-07T08:54:46;68.82;;;35.25;;
26375;SDS011;30544;42.196;24.336;2022-12-07T08:57:14;57.55;;;30.58;;
26375;SDS011;30544;42.196;24.336;2022-12-07T08:59:41;60.70;;;32.78;;
26375;SDS011;30544;42.196;24.336;2022-12-07T09:02:07;60.15;;;30.60;;
26375;SDS011;30544;42.196;24.336;2022-12-07T09:04:35;65.32;;;34.05;;
26375;SDS011;30544;42.196;24.336;2022-12-07T09:07:03;61.60;;;33.55;;
26375;SDS011;30544;42.196;24.336;2022-12-07T09:09:30;63.50;;;33.50;;
26375;SDS011;30544;42.196;24.336;2022-12-07T09:11:56;73.03;;;35.20;;
26375;SDS011;30544;42.196;24.336;2022-12-07T09:14:23;78.15;;;39.78;;
26375;SDS011;30544;42.196;24.336;2022-12-07T09:16:50;72.22;;;33.10;;
26375;SDS011;30544;42.196;24.336;2022-12-07T09:19:17;56.13;;;30.05;;
26375;SDS011;30544;42.196;24.336;2022-12-07T09:21:43;64.13;;;35.15;;
26375;SDS011;30544;42.196;24.336;2022-12-07T09:24:12;71.35;;;34.60;;
26375;SDS011;30544;42.196;24.336;2022-12-07T09:26:39;70.85;;;36.38;;
26375;SDS011;30544;42.196;24.336;2022-12-07T09:29:06;70.20;;;34.85;;
26375;SDS011;30544;42.196;24.336;2022-12-07T09:31:33;64.05;;;33.20;;
26375;SDS011;30544;42.196;24.336;2022-12-07T09:34:02;70.88;;;36.08;;
26375;SDS011;30544;42.196;24.336;2022-12-07T09:36:30;62.35;;;32.83;;
26375;SDS011;30544;42.196;24.336;2022-12-07T09:38:57;66.68;;;36.25;;
26375;SDS011;30544;42.196;24.336;2022-12-07T09:41:25;63.72;;;32.90;;
26375;SDS011;30544;42.196;24.336;2022-12-07T09:43:57;96.50;;;44.45;;
26375;SDS011;30544;42.196;24.336;2022-12-07T09:46:30;69.72;;;34.28;;
26375;SDS011;30544;42.196;24.336;2022-12-07T09:49:02;54.33;;;31.90;;
26375;SDS011;30544;42.196;24.336;2022-12-07T09:51:29;60.13;;;30.60;;
26375;SDS011;30544;42.196;24.336;2022-12-07T09:53:57;70.10;;;36.10;;
26375;SDS011;30544;42.196;24.336;2022-12-07T09:56:28;65.75;;;36.67;;
26375;SDS011;30544;42.196;24.336;2022-12-07T09:58:58;72.20;;;32.72;;
26375;SDS011;30544;42.196;24.336;2022-12-07T10:01:27;68.57;;;34.60;;
26375;SDS011;30544;42.196;24.336;2022-12-07T10:03:56;66.07;;;35.30;;
26375;SDS011;30544;42.196;24.336;2022-12-07T10:06:32;54.13;;;28.35;;
26375;SDS011;30544;42.196;24.336;2022-12-07T10:08:59;48.25;;;26.95;;
26375;SDS011;30544;42.196;24.336;2022-12-07T10:11:27;57.08;;;28.05;;
26375;SDS011;30544;42.196;24.336;2022-12-07T10:13:54;61.58;;;34.03;;
26375;SDS011;30544;42.196;24.336;2022-12-07T10:16:27;54.75;;;30.00;;
26375;SDS011;30544;42.196;24.336;2022-12-07T10:21:58;54.50;;;28.73;;
26375;SDS011;30544;42.196;24.336;2022-12-07T10:24:27;48.42;;;27.42;;
26375;SDS011;30544;42.196;24.336;2022-12-07T10:26:56;60.95;;;32.95;;
26375;SDS011;30544;42.196;24.336;2022-12-07T10:29:23;60.10;;;30.92;;
26375;SDS011;30544;42.196;24.336;2022-12-07T10:31:54;59.42;;;33.47;;
26375;SDS011;30544;42.196;24.336;2022-12-07T10:34:24;68.53;;;37.85;;
26375;SDS011;30544;42.196;24.336;2022-12-07T10:36:52;56.83;;;30.85;;
26375;SDS011;30544;42.196;24.336;2022-12-07T10:39:20;57.25;;;33.33;;
26375;SDS011;30544;42.196;24.336;2022-12-07T10:41:56;61.95;;;32.97;;
26375;SDS011;30544;42.196;24.336;2022-12-07T10:44:24;60.60;;;32.22;;
26375;SDS011;30544;42.196;24.336;2022-12-07T10:47:11;58.65;;;32.28;;
26375;SDS011;30544;42.196;24.336;2022-12-07T10:50:04;63.35;;;30.15;;
26375;SDS011;30544;42.196;24.336;2022-12-07T10:52:51;64.07;;;31.60;;
26375;SDS011;30544;42.196;24.336;2022-12-07T10:55:32;155.60;;;57.30;;
26375;SDS011;30544;42.196;24.336;2022-12-07T11:01:04;167.40;;;70.85;;
26375;SDS011;30544;42.196;24.336;2022-12-07T11:03:46;53.13;;;31.15;;
26375;SDS011;30544;42.196;24.336;2022-12-07T11:06:32;55.40;;;30.80;;
26375;SDS011;30544;42.196;24.336;2022-12-07T11:09:16;54.30;;;30.92;;
26375;SDS011;30544;42.196;24.336;2022-12-07T11:11:59;55.05;;;31.42;;
26375;SDS011;30544;42.196;24.336;2022-12-07T11:14:36;58.33;;;32.30;;
26375;SDS011;30544;42.196;24.336;2022-12-07T11:17:12;62.50;;;33.15;;
26375;SDS011;30544;42.196;24.336;2022-12-07T11:19:49;63.67;;;32.80;;
26375;SDS011;30544;42.196;24.336;2022-12-07T11:22:29;59.90;;;33.67;;
26375;SDS011;30544;42.196;24.336;2022-12-07T11:25:13;52.58;;;29.42;;
26375;SDS011;30544;42.196;24.336;2022-12-07T11:27:48;55.97;;;28.63;;
26375;SDS011;30544;42.196;24.336;2022-12-07T11:30:31;57.75;;;27.80;;
26375;SDS011;30544;42.196;24.336;2022-12-07T11:33:05;64.88;;;30.05;;
26375;SDS011;30544;42.196;24.336;2022-12-07T11:35:45;50.00;;;27.83;;
26375;SDS011;30544;42.196;24.336;2022-12-07T11:38:18;54.05;;;28.45;;
26375;SDS011;30544;42.196;24.336;2022-12-07T11:40:48;56.92;;;27.98;;
26375;SDS011;30544;42.196;24.336;2022-12-07T11:43:19;57.10;;;29.73;;
26375;SDS011;30544;42.196;24.336;2022-12-07T11:45:54;50.72;;;25.75;;
26375;SDS011;30544;42.196;24.336;2022-12-07T11:48:28;65.93;;;30.95;;
26375;SDS011;30544;42.196;24.336;2022-12-07T11:51:01;53.50;;;29.85;;
26375;SDS011;30544;42.196;24.336;2022-12-07T11:53:30;56.47;;;31.63;;
26375;SDS011;30544;42.196;24.336;2022-12-07T11:56:03;59.08;;;31.40;;
26375;SDS011;30544;42.196;24.336;2022-12-07T11:58:43;57.30;;;30.58;;
26375;SDS011;30544;42.196;24.336;2022-12-07T12:01:21;58.13;;;31.48;;
26375;SDS011;30544;42.196;24.336;2022-12-07T12:04:13;56.20;;;30.30;;
26375;SDS011;30544;42.196;24.336;2022-12-07T12:06:50;59.15;;;29.98;;
26375;SDS011;30544;42.196;24.336;2022-12-07T12:09:19;54.53;;;29.30;;
26375;SDS011;30544;42.196;24.336;2022-12-07T12:15:08;56.10;;;29.25;;
26375;SDS011;30544;42.196;24.336;2022-12-07T12:17:52;54.58;;;31.05;;
26375;SDS011;30544;42.196;24.336;2022-12-07T12:20:39;62.17;;;31.38;;
26375;SDS011;30544;42.196;24.336;2022-12-07T12:23:10;53.08;;;29.77;;
26375;SDS011;30544;42.196;24.336;2022-12-07T12:25:42;59.97;;;29.80;;
26375;SDS011;30544;42.196;24.336;2022-12-07T12:28:24;66.60;;;31.38;;
26375;SDS011;30544;42.196;24.336;2022-12-07T12:31:05;64.55;;;33.25;;
26375;SDS011;30544;42.196;24.336;2022-12-07T12:33:36;51.78;;;30.98;;
26375;SDS011;30544;42.196;24.336;2022-12-07T12:36:18;58.30;;;31.08;;
26375;SDS011;30544;42.196;24.336;2022-12-07T12:38:49;62.08;;;34.10;;
26375;SDS011;30544;42.196;24.336;2022-12-07T12:44:40;62.67;;;32.40;;
26375;SDS011;30544;42.196;24.336;2022-12-07T12:50:31;69.30;;;33.90;;
26375;SDS011;30544;42.196;24.336;2022-12-07T12:53:02;53.63;;;30.27;;
26375;SDS011;30544;42.196;24.336;2022-12-07T12:55:48;54.03;;;29.35;;
26375;SDS011;30544;42.196;24.336;2022-12-07T12:58:35;51.53;;;28.95;;
26375;SDS011;30544;42.196;24.336;2022-12-07T13:07:04;60.10;;;32.25;;
26375;SDS011;30544;42.196;24.336;2022-12-07T13:09:39;59.05;;;29.58;;
26375;SDS011;30544;42.196;24.336;2022-12-07T13:12:14;53.88;;;29.98;;
26375;SDS011;30544;42.196;24.336;2022-12-07T13:14:58;59.70;;;31.98;;
26375;SDS011;30544;42.196;24.336;2022-12-07T13:20:49;103.80;;;53.42;;
26375;SDS011;30544;42.196;24.336;2022-12-07T13:23:29;83.90;;;42.20;;
26375;SDS011;30544;42.196;24.336;2022-12-07T13:26:14;81.28;;;40.28;;
26375;SDS011;30544;42.196;24.336;2022-12-07T13:28:43;91.43;;;48.42;;
26375;SDS011;30544;42.196;24.336;2022-12-07T13:34:01;82.18;;;40.47;;
26375;SDS011;30544;42.196;24.336;2022-12-07T13:36:31;76.72;;;38.80;;
26375;SDS011;30544;42.196;24.336;2022-12-07T13:39:10;70.35;;;38.63;;
26375;SDS011;30544;42.196;24.336;2022-12-07T13:41:44;96.22;;;46.17;;
26375;SDS011;30544;42.196;24.336;2022-12-07T13:44:16;74.13;;;36.97;;
26375;SDS011;30544;42.196;24.336;2022-12-07T13:46:44;77.47;;;38.15;;
26375;SDS011;30544;42.196;24.336;2022-12-07T13:49:17;78.10;;;38.22;;
26375;SDS011;30544;42.196;24.336;2022-12-07T13:51:47;77.88;;;40.13;;
26375;SDS011;30544;42.196;24.336;2022-12-07T13:54:15;75.78;;;38.15;;
26375;SDS011;30544;42.196;24.336;2022-12-07T13:56:42;77.03;;;38.83;;
26375;SDS011;30544;42.196;24.336;2022-12-07T13:59:13;79.47;;;38.63;;
26375;SDS011;30544;42.196;24.336;2022-12-07T14:01:42;84.20;;;39.75;;
26375;SDS011;30544;42.196;24.336;2022-12-07T14:04:18;84.70;;;39.85;;
26375;SDS011;30544;42.196;24.336;2022-12-07T14:06:55;76.88;;;39.92;;
26375;SDS011;30544;42.196;24.336;2022-12-07T14:09:22;91.30;;;42.75;;
26375;SDS011;30544;42.196;24.336;2022-12-07T14:11:51;81.63;;;43.97;;
26375;SDS011;30544;42.196;24.336;2022-12-07T14:14:20;90.28;;;46.17;;
26375;SDS011;30544;42.196;24.336;2022-12-07T14:16:59;101.25;;;50.47;;
26375;SDS011;30544;42.196;24.336;2022-12-07T14:19:41;106.80;;;53.47;;
26375;SDS011;30544;42.196;24.336;2022-12-07T14:22:19;126.43;;;60.90;;
26375;SDS011;30544;42.196;24.336;2022-12-07T14:24:49;112.72;;;54.53;;
26375;SDS011;30544;42.196;24.336;2022-12-07T14:27:16;114.50;;;55.80;;
26375;SDS011;30544;42.196;24.336;2022-12-07T14:29:44;123.03;;;54.63;;
26375;SDS011;30544;42.196;24.336;2022-12-07T14:32:17;114.50;;;54.58;;
26375;SDS011;30544;42.196;24.336;2022-12-07T14:34:54;115.82;;;56.78;;
26375;SDS011;30544;42.196;24.336;2022-12-07T14:37:24;123.40;;;60.42;;
26375;SDS011;30544;42.196;24.336;2022-12-07T14:39:51;124.20;;;61.95;;
26375;SDS011;30544;42.196;24.336;2022-12-07T14:42:17;124.15;;;60.55;;
26375;SDS011;30544;42.196;24.336;2022-12-07T14:44:44;134.15;;;63.90;;
26375;SDS011;30544;42.196;24.336;2022-12-07T14:47:11;135.55;;;64.45;;
26375;SDS011;30544;42.196;24.336;2022-12-07T14:49:38;157.82;;;78.68;;
26375;SDS011;30544;42.196;24.336;2022-12-07T14:52:05;164.73;;;83.68;;
26375;SDS011;30544;42.196;24.336;2022-12-07T14:54:37;151.38;;;78.28;;
26375;SDS011;30544;42.196;24.336;2022-12-07T14:57:04;129.23;;;60.65;;
26375;SDS011;30544;42.196;24.336;2022-12-07T14:59:31;113.65;;;57.13;;